createdAt,value
2023-01-12T00:01:57.978Z,1.10
2023-01-12T00:04:25.014Z,1.40
2023-01-12T00:06:51.896Z,1.38
2023-01-12T00:09:18.722Z,1.40
2023-01-12T00:11:45.507Z,1.38
2023-01-12T00:14:12.468Z,1.20
2023-01-12T00:16:39.714Z,1.33
2023-01-12T00:19:18.448Z,0.80
2023-01-12T00:21:59.592Z,0.90
2023-01-12T00:24:29.187Z,0.70
2023-01-12T00:26:58.419Z,1.20
2023-01-12T00:29:26.742Z,1.02
2023-01-12T00:31:54.836Z,0.80
2023-01-12T00:34:22.616Z,0.60
2023-01-12T00:36:49.644Z,0.77
2023-01-12T00:39:17.452Z,0.70
2023-01-12T00:42:03.234Z,0.50
2023-01-12T00:44:50.135Z,0.57
2023-01-12T00:47:18.259Z,0.70
2023-01-12T00:49:45.396Z,0.40
2023-01-12T00:52:29.377Z,0.35
2023-01-12T00:54:57.135Z,0.17
2023-01-12T00:57:23.923Z,0.20
2023-01-12T00:59:51.766Z,0.22
2023-01-12T01:02:18.672Z,0.30
2023-01-12T01:04:45.505Z,0.20
2023-01-12T01:07:16.162Z,0.17
2023-01-12T01:09:44.391Z,0.10
2023-01-12T01:12:11.338Z,0.15
2023-01-12T01:14:38.252Z,0.20
2023-01-12T01:17:05.460Z,0.20
2023-01-12T01:19:32.441Z,0.20
2023-01-12T01:21:59.647Z,0.10
2023-01-12T01:24:26.588Z,0.25
2023-01-12T01:26:53.377Z,0.20
2023-01-12T01:29:20.234Z,0.20
2023-01-12T01:31:50.091Z,0.13
2023-01-12T01:34:16.911Z,0.20
2023-01-12T01:36:43.683Z,0.30
2023-01-12T01:39:10.703Z,0.30
2023-01-12T01:41:38.437Z,0.30
2023-01-12T01:44:29.802Z,0.30
2023-01-12T01:47:05.056Z,0.52
2023-01-12T01:49:51.927Z,0.80
2023-01-12T01:52:29.519Z,1.42
2023-01-12T01:55:01.788Z,1.08
2023-01-12T01:57:42.303Z,1.58
2023-01-12T02:00:12.496Z,1.40
2023-01-12T02:02:41.702Z,1.73
2023-01-12T02:05:10.617Z,1.38
2023-01-12T02:07:38.743Z,1.45
2023-01-12T02:10:06.431Z,1.40
2023-01-12T02:12:52.227Z,1.35
2023-01-12T02:15:38.247Z,1.42
2023-01-12T02:18:22.433Z,1.70
2023-01-12T02:21:52.186Z,1.48
2023-01-12T02:24:58.662Z,1.40
2023-01-12T02:27:50.886Z,1.98
2023-01-12T02:30:24.194Z,1.30
2023-01-12T02:33:09.076Z,1.80
2023-01-12T02:36:19.387Z,1.70
2023-01-12T02:39:12.132Z,2.03
2023-01-12T02:42:40.700Z,2.00
2023-01-12T02:45:34.102Z,2.65
2023-01-12T02:48:22.191Z,2.50
2023-01-12T02:51:14.621Z,2.75
2023-01-12T02:53:53.247Z,2.88
2023-01-12T02:56:31.863Z,2.85
2023-01-12T02:59:04.029Z,2.75
2023-01-12T03:01:35.378Z,2.65
2023-01-12T03:04:06.906Z,3.08
2023-01-12T03:06:46.462Z,2.55
2023-01-12T03:09:18.389Z,2.85
2023-01-12T03:11:49.281Z,2.60
2023-01-12T03:14:18.184Z,2.90
2023-01-12T03:16:45.004Z,2.13
2023-01-12T03:19:18.782Z,2.60
2023-01-12T03:21:58.006Z,2.55
2023-01-12T03:24:50.508Z,2.33
2023-01-12T03:27:23.246Z,2.20
2023-01-12T03:30:00.981Z,2.50
2023-01-12T03:32:28.306Z,2.15
2023-01-12T03:34:55.199Z,2.13
2023-01-12T03:37:34.947Z,2.25
2023-01-12T03:40:24.068Z,1.98
2023-01-12T03:43:05.745Z,2.15
2023-01-12T03:45:55.355Z,1.75
2023-01-12T03:48:34.311Z,1.90
2023-01-12T03:51:35.291Z,2.28
2023-01-12T03:54:04.830Z,1.52
2023-01-12T03:56:35.778Z,1.98
2023-01-12T03:59:04.841Z,1.80
2023-01-12T04:01:32.995Z,1.80
2023-01-12T04:03:59.872Z,1.40
2023-01-12T04:06:26.929Z,1.55
2023-01-12T04:08:53.729Z,1.30
2023-01-12T04:11:39.004Z,1.60
2023-01-12T04:14:05.780Z,1.35
2023-01-12T04:16:32.988Z,1.33
2023-01-12T04:18:59.810Z,1.50
2023-01-12T04:21:46.846Z,1.65
2023-01-12T04:24:13.613Z,1.65
2023-01-12T04:26:40.553Z,1.20
2023-01-12T04:29:07.387Z,1.40
2023-01-12T04:31:34.251Z,1.73
2023-01-12T04:34:01.155Z,1.00
2023-01-12T04:36:28.047Z,1.40
2023-01-12T04:38:54.855Z,1.48
2023-01-12T04:41:22.025Z,1.30
2023-01-12T04:43:48.818Z,1.48
2023-01-12T04:46:15.682Z,1.13
2023-01-12T04:48:44.421Z,1.25
2023-01-12T04:51:11.539Z,1.55
2023-01-12T04:53:38.539Z,1.33
2023-01-12T04:56:07.099Z,1.20
2023-01-12T04:58:35.194Z,1.30
2023-01-12T05:01:10.179Z,1.10
2023-01-12T05:06:05.376Z,1.30
2023-01-12T05:08:51.231Z,1.10
2023-01-12T05:11:18.293Z,1.30
2023-01-12T05:13:45.083Z,1.20
2023-01-12T05:16:16.057Z,1.40
2023-01-12T05:18:45.177Z,1.50
2023-01-12T05:21:13.734Z,1.45
2023-01-12T05:23:40.571Z,1.38
2023-01-12T05:26:08.029Z,1.40
2023-01-12T05:28:34.934Z,1.70
2023-01-12T05:31:06.700Z,1.63
2023-01-12T05:33:34.048Z,1.55
2023-01-12T05:36:07.871Z,1.73
2023-01-12T05:38:34.708Z,1.50
2023-01-12T05:41:04.724Z,1.77
2023-01-12T05:43:50.569Z,1.38
2023-01-12T05:46:43.984Z,1.83
2023-01-12T05:49:11.198Z,1.70
2023-01-12T05:51:37.950Z,1.55
2023-01-12T05:54:05.011Z,1.88
2023-01-12T05:56:33.019Z,2.10
2023-01-12T05:59:04.446Z,1.80
2023-01-12T06:01:32.583Z,1.73
2023-01-12T06:04:01.812Z,2.17
2023-01-12T06:06:31.535Z,2.00
2023-01-12T06:09:00.367Z,1.83
2023-01-12T06:11:46.534Z,1.95
2023-01-12T06:14:16.813Z,1.85
2023-01-12T06:16:44.552Z,1.88
2023-01-12T06:19:12.963Z,2.30
2023-01-12T06:21:40.819Z,2.10
2023-01-12T06:24:08.437Z,2.10
2023-01-12T06:26:35.350Z,2.10
2023-01-12T06:29:03.680Z,2.00
2023-01-12T06:31:30.982Z,2.35
2023-01-12T06:33:58.157Z,2.33
2023-01-12T06:36:25.130Z,2.10
2023-01-12T06:38:51.881Z,1.88
2023-01-12T06:41:37.386Z,1.52
2023-01-12T06:44:04.769Z,1.75
2023-01-12T06:46:31.624Z,1.75
2023-01-12T06:48:59.117Z,1.10
2023-01-12T06:51:26.928Z,1.50
2023-01-12T06:53:53.936Z,1.90
2023-01-12T06:56:21.273Z,1.50
2023-01-12T06:58:48.162Z,1.70
2023-01-12T07:01:15.552Z,1.40
2023-01-12T07:03:42.463Z,1.30
2023-01-12T07:06:09.452Z,1.02
2023-01-12T07:08:36.684Z,1.40
2023-01-12T07:11:08.184Z,1.63
2023-01-12T07:13:35.618Z,2.10
2023-01-12T07:16:02.606Z,1.90
2023-01-12T07:18:30.543Z,1.73
2023-01-12T07:20:57.737Z,1.35
2023-01-12T07:23:24.827Z,1.50
2023-01-12T07:25:51.655Z,1.05
2023-01-12T07:28:18.549Z,1.35
2023-01-12T07:30:45.576Z,1.35
2023-01-12T07:33:15.759Z,1.45
2023-01-12T07:35:44.379Z,1.50
2023-01-12T07:38:11.369Z,1.10
2023-01-12T07:40:38.444Z,1.20
2023-01-12T07:43:09.112Z,1.08
2023-01-12T07:45:36.260Z,1.00
2023-01-12T07:48:03.507Z,1.20
2023-01-12T07:50:30.697Z,1.27
2023-01-12T07:53:02.001Z,1.10
2023-01-12T07:55:32.731Z,1.17
2023-01-12T07:58:03.434Z,1.00
2023-01-12T08:00:31.174Z,1.08
2023-01-12T08:03:06.404Z,1.60
2023-01-12T08:05:35.154Z,1.30
2023-01-12T08:08:03.668Z,1.45
2023-01-12T08:10:30.962Z,1.33
2023-01-12T08:12:57.864Z,1.42
2023-01-12T08:15:28.103Z,1.70
2023-01-12T08:18:07.039Z,1.48
2023-01-12T08:20:36.501Z,1.42
2023-01-12T08:23:13.694Z,1.35
2023-01-12T08:25:46.378Z,1.15
2023-01-12T08:28:18.180Z,0.85
2023-01-12T08:30:49.121Z,1.05
2023-01-12T08:33:16.925Z,0.80
2023-01-12T08:35:46.585Z,0.80
2023-01-12T08:38:13.833Z,0.77
2023-01-12T08:40:59.291Z,0.82
2023-01-12T08:43:44.560Z,0.95
2023-01-12T08:48:39.368Z,0.63
2023-01-12T08:51:08.384Z,1.05
2023-01-12T08:53:35.714Z,0.85
2023-01-12T08:56:03.009Z,1.17
2023-01-12T08:58:31.401Z,0.95
2023-01-12T09:00:59.106Z,0.63
2023-01-12T09:03:25.955Z,1.38
2023-01-12T09:05:52.738Z,0.70
2023-01-12T09:08:19.665Z,0.90
2023-01-12T09:10:46.437Z,0.70
2023-01-12T09:13:15.899Z,0.80
2023-01-12T09:15:48.261Z,0.60
2023-01-12T09:18:20.279Z,0.60
2023-01-12T09:20:47.228Z,0.80
2023-01-12T09:23:14.050Z,0.60
2023-01-12T09:25:41.097Z,0.57
2023-01-12T09:28:07.833Z,0.60
2023-01-12T09:30:34.656Z,0.60
2023-01-12T09:33:01.442Z,0.70
2023-01-12T09:35:28.233Z,0.90
2023-01-12T09:37:54.991Z,0.70
2023-01-12T09:40:21.867Z,0.70
2023-01-12T09:43:10.113Z,1.35
2023-01-12T09:45:55.572Z,1.13
2023-01-12T09:48:23.512Z,1.02
2023-01-12T09:51:27.117Z,1.30
2023-01-12T09:53:54.100Z,0.98
2023-01-12T09:56:38.944Z,1.00
2023-01-12T09:59:30.554Z,0.80
2023-01-12T10:01:57.902Z,0.85
2023-01-12T10:04:25.469Z,0.90
2023-01-12T10:06:52.695Z,0.90
2023-01-12T10:09:21.822Z,1.00
2023-01-12T10:12:35.935Z,0.80
2023-01-12T10:15:25.542Z,0.80
2023-01-12T10:18:03.711Z,1.13
2023-01-12T10:20:38.460Z,1.15
2023-01-12T10:23:08.171Z,1.05
2023-01-12T10:25:43.079Z,0.80
2023-01-12T10:28:21.307Z,1.00
2023-01-12T10:30:48.100Z,0.90
2023-01-12T10:33:30.783Z,0.88
2023-01-12T10:36:01.113Z,0.85
2023-01-12T10:38:37.423Z,0.70
2023-01-12T10:41:10.265Z,0.40
2023-01-12T10:43:38.643Z,0.40
2023-01-12T10:46:14.338Z,0.50
2023-01-12T10:48:47.793Z,0.40
2023-01-12T10:51:31.331Z,0.43
2023-01-12T10:54:19.540Z,0.57
2023-01-12T10:56:59.312Z,0.30
2023-01-12T10:59:31.583Z,0.30
2023-01-12T11:02:11.933Z,0.20
2023-01-12T11:04:47.044Z,0.20
2023-01-12T11:10:20.900Z,0.43
2023-01-12T11:13:00.041Z,0.35
2023-01-12T11:15:28.877Z,0.30
2023-01-12T11:18:17.243Z,0.38
2023-01-12T11:21:06.492Z,0.30
2023-01-12T11:23:46.665Z,0.63
2023-01-12T11:26:22.697Z,0.50
2023-01-12T11:28:56.163Z,0.40
2023-01-12T11:31:32.013Z,0.50
2023-01-12T11:34:05.588Z,0.82
2023-01-12T11:36:41.965Z,0.57
2023-01-12T11:39:18.872Z,0.93
2023-01-12T11:42:09.709Z,0.65
2023-01-12T11:45:15.656Z,0.95
2023-01-12T11:48:17.558Z,0.90
2023-01-12T11:50:46.549Z,1.13
2023-01-12T11:53:21.902Z,1.20
2023-01-12T11:56:23.592Z,1.05
2023-01-12T11:59:50.338Z,1.08
2023-01-12T12:02:39.469Z,1.10
2023-01-12T12:05:23.234Z,1.38
2023-01-12T12:07:52.653Z,1.17
2023-01-12T12:10:27.761Z,1.38
2023-01-12T12:13:25.831Z,1.50
2023-01-12T12:16:13.938Z,1.95
2023-01-12T12:18:59.205Z,1.88
2023-01-12T12:21:46.184Z,2.05
2023-01-12T12:24:51.629Z,1.85
2023-01-12T12:27:56.685Z,2.80
2023-01-12T12:30:56.977Z,2.85
2023-01-12T12:33:50.375Z,2.80
2023-01-12T12:36:35.588Z,3.03
2023-01-12T12:39:20.739Z,3.50
2023-01-12T12:42:49.441Z,4.45
2023-01-12T12:45:37.006Z,4.15
2023-01-12T12:48:21.550Z,3.65
2023-01-12T12:51:04.551Z,4.40
2023-01-12T12:53:36.697Z,4.03
2023-01-12T12:56:11.766Z,4.25
2023-01-12T13:01:23.413Z,4.53
2023-01-12T13:03:54.118Z,4.80
2023-01-12T13:06:36.080Z,4.85
2023-01-12T13:09:11.924Z,4.75
2023-01-12T13:12:08.004Z,5.25
2023-01-12T13:14:40.985Z,4.93
2023-01-12T13:17:20.263Z,4.75
2023-01-12T13:19:47.220Z,4.50
2023-01-12T13:22:32.508Z,4.80
2023-01-12T13:28:01.557Z,5.65
2023-01-12T13:30:28.466Z,6.10
2023-01-12T13:32:55.225Z,5.75
2023-01-12T13:35:34.099Z,5.35
2023-01-12T13:38:27.931Z,6.40
2023-01-12T13:41:52.332Z,5.88
2023-01-12T13:44:26.491Z,5.72
2023-01-12T13:47:10.888Z,5.57
2023-01-12T13:49:47.019Z,6.45
2023-01-12T13:52:37.197Z,6.00
2023-01-12T13:55:23.332Z,6.82
2023-01-12T13:58:18.363Z,6.22
2023-01-12T14:00:59.376Z,5.70
2023-01-12T14:04:10.396Z,5.55
2023-01-12T14:07:04.788Z,5.20
2023-01-12T14:09:49.058Z,6.35
2023-01-12T14:12:37.935Z,6.70
2023-01-12T14:15:58.460Z,6.35
2023-01-12T14:18:46.955Z,6.63
2023-01-12T14:21:33.709Z,7.07
2023-01-12T14:24:16.547Z,5.82
2023-01-12T14:26:43.436Z,5.25
2023-01-12T14:29:11.684Z,5.25
2023-01-12T14:31:51.575Z,6.43
2023-01-12T14:34:35.308Z,6.10
2023-01-12T14:37:06.056Z,6.28
2023-01-12T14:39:41.370Z,6.38
2023-01-12T14:42:37.961Z,6.45
2023-01-12T14:45:44.387Z,7.10
2023-01-12T14:48:30.764Z,7.70
2023-01-12T14:51:17.992Z,7.43
2023-01-12T14:53:48.178Z,7.22
2023-01-12T14:56:26.782Z,6.75
2023-01-12T14:58:54.585Z,7.22
2023-01-12T15:01:34.094Z,8.75
2023-01-12T15:04:01.516Z,7.07
2023-01-12T15:06:28.345Z,7.63
2023-01-12T15:09:00.764Z,7.70
2023-01-12T15:11:35.482Z,9.43
2023-01-12T15:14:05.912Z,7.75
2023-01-12T15:16:51.139Z,7.57
2023-01-12T15:19:36.482Z,7.47
2023-01-12T15:22:22.015Z,8.23
2023-01-12T15:25:07.344Z,7.03
2023-01-12T15:27:34.287Z,8.52
2023-01-12T15:30:01.114Z,6.75
2023-01-12T15:32:53.129Z,7.57
2023-01-12T15:35:26.763Z,6.45
2023-01-12T15:37:57.050Z,7.43
2023-01-12T15:40:26.877Z,7.95
2023-01-12T15:42:53.871Z,7.05
2023-01-12T15:45:27.715Z,7.35
2023-01-12T15:47:54.730Z,7.70
2023-01-12T15:50:21.533Z,6.57
2023-01-12T15:52:49.035Z,6.80
2023-01-12T15:55:21.043Z,7.75
2023-01-12T15:57:48.613Z,7.25
2023-01-12T16:00:19.967Z,7.22
2023-01-12T16:02:48.944Z,5.53
2023-01-12T16:05:19.461Z,7.00
2023-01-12T16:07:48.541Z,6.18
2023-01-12T16:10:17.240Z,7.55
2023-01-12T16:12:44.569Z,7.47
2023-01-12T16:15:24.178Z,6.55
2023-01-12T16:17:52.275Z,6.70
2023-01-12T16:20:20.697Z,6.50
2023-01-12T16:22:47.941Z,5.78
2023-01-12T16:25:15.924Z,6.30
2023-01-12T16:27:42.831Z,6.82
2023-01-12T16:30:14.740Z,5.90
2023-01-12T16:32:45.969Z,5.97
2023-01-12T16:35:14.534Z,6.47
2023-01-12T16:37:41.626Z,6.75
2023-01-12T16:40:10.276Z,6.90
2023-01-12T16:42:37.274Z,6.28
2023-01-12T16:45:04.657Z,6.95
2023-01-12T16:47:31.625Z,6.45
2023-01-12T16:49:58.573Z,6.43
2023-01-12T16:52:25.373Z,6.13
2023-01-12T16:54:52.269Z,6.15
2023-01-12T16:57:19.821Z,6.30
2023-01-12T16:59:47.010Z,6.22
2023-01-12T17:02:16.298Z,5.57
2023-01-12T17:04:44.936Z,5.63
2023-01-12T17:07:12.353Z,6.07
2023-01-12T17:09:40.387Z,5.32
2023-01-12T17:12:08.095Z,5.68
2023-01-12T17:14:35.737Z,5.65
2023-01-12T17:17:07.787Z,5.70
2023-01-12T17:19:37.800Z,6.32
2023-01-12T17:22:08.075Z,5.28
2023-01-12T17:24:41.883Z,5.45
2023-01-12T17:27:10.785Z,4.80
2023-01-12T17:29:38.172Z,4.70
2023-01-12T17:32:07.009Z,5.03
2023-01-12T17:34:39.087Z,6.28
2023-01-12T17:37:08.752Z,5.65
2023-01-12T17:39:40.514Z,6.20
2023-01-12T17:42:26.934Z,6.28
2023-01-12T17:44:53.764Z,5.45
2023-01-12T17:47:20.614Z,5.75
2023-01-12T17:49:48.089Z,4.95
2023-01-12T17:52:15.301Z,5.35
2023-01-12T17:54:42.153Z,4.72
2023-01-12T17:57:09.230Z,5.75
2023-01-12T17:59:36.151Z,5.50
2023-01-12T18:02:03.976Z,4.90
2023-01-12T18:04:31.590Z,5.35
2023-01-12T18:06:58.540Z,5.57
2023-01-12T18:09:28.032Z,5.25
2023-01-12T18:11:55.211Z,5.57
2023-01-12T18:14:24.530Z,4.93
2023-01-12T18:16:51.353Z,4.63
2023-01-12T18:19:18.211Z,5.05
2023-01-12T18:21:45.136Z,4.45
2023-01-12T18:24:12.317Z,5.22
2023-01-12T18:26:39.277Z,5.45
2023-01-12T18:29:07.139Z,5.55
2023-01-12T18:31:38.255Z,6.00
2023-01-12T18:34:06.384Z,5.85
2023-01-12T18:36:40.471Z,5.40
2023-01-12T18:39:12.631Z,5.70
2023-01-12T18:41:58.241Z,5.55
2023-01-12T18:44:25.149Z,6.93
2023-01-12T18:47:10.432Z,6.28
2023-01-12T18:52:23.849Z,4.95
2023-01-12T18:54:54.865Z,5.72
2023-01-12T18:57:25.394Z,5.82
2023-01-12T18:59:56.825Z,5.05
2023-01-12T19:02:23.889Z,4.78
2023-01-12T19:04:50.719Z,4.63
2023-01-12T19:07:40.622Z,4.57
2023-01-12T19:10:08.274Z,3.88
2023-01-12T19:12:35.054Z,4.47
2023-01-12T19:15:20.313Z,3.72
2023-01-12T19:20:17.560Z,3.72
2023-01-12T19:23:02.780Z,4.25
2023-01-12T19:25:47.994Z,4.38
2023-01-12T19:28:35.440Z,4.25
2023-01-12T19:31:06.376Z,3.50
2023-01-12T19:33:33.587Z,3.88
2023-01-12T19:36:10.361Z,3.58
2023-01-12T19:38:38.137Z,4.25
2023-01-12T19:41:33.672Z,4.40
2023-01-12T19:44:05.363Z,3.22
2023-01-12T19:46:33.367Z,3.42
2023-01-12T19:49:00.617Z,3.72
2023-01-12T19:51:27.797Z,3.58
2023-01-12T19:53:54.564Z,3.85
2023-01-12T19:56:22.152Z,3.60
2023-01-12T19:58:48.995Z,3.53
2023-01-12T20:01:23.409Z,4.20
2023-01-12T20:03:51.281Z,3.50
2023-01-12T20:06:18.452Z,4.38
2023-01-12T20:08:45.476Z,5.82
2023-01-12T20:11:12.272Z,4.10
2023-01-12T20:13:39.231Z,3.85
2023-01-12T20:16:10.934Z,4.00
2023-01-12T20:18:38.135Z,3.67
2023-01-12T20:21:09.606Z,3.90
2023-01-12T20:23:36.425Z,4.53
2023-01-12T20:26:07.945Z,3.90
2023-01-12T20:28:35.550Z,3.97
2023-01-12T20:31:02.543Z,4.25
2023-01-12T20:33:29.421Z,4.72
2023-01-12T20:35:57.213Z,4.78
2023-01-12T20:38:24.061Z,4.60
2023-01-12T20:40:50.878Z,4.57
2023-01-12T20:43:17.844Z,4.78
2023-01-12T20:45:45.317Z,4.82
2023-01-12T20:48:15.627Z,4.45
2023-01-12T20:50:46.413Z,4.65
2023-01-12T20:53:15.531Z,4.00
2023-01-12T20:55:49.173Z,4.32
2023-01-12T20:58:16.962Z,4.53
2023-01-12T21:00:44.891Z,4.60
2023-01-12T21:03:11.830Z,5.10
2023-01-12T21:05:43.751Z,4.18
2023-01-12T21:08:12.395Z,4.30
2023-01-12T21:10:40.750Z,3.92
2023-01-12T21:13:08.194Z,4.75
2023-01-12T21:15:35.142Z,4.13
2023-01-12T21:18:01.928Z,4.13
2023-01-12T21:20:28.727Z,3.75
2023-01-12T21:22:55.615Z,3.70
2023-01-12T21:25:26.127Z,3.47
2023-01-12T21:27:52.927Z,4.30
2023-01-12T21:30:19.998Z,4.13
2023-01-12T21:32:47.288Z,4.25
2023-01-12T21:35:15.693Z,4.32
2023-01-12T21:37:42.451Z,4.85
2023-01-12T21:40:10.570Z,4.53
2023-01-12T21:42:55.849Z,4.53
2023-01-12T21:47:50.667Z,4.50
2023-01-12T21:50:17.888Z,5.00
2023-01-12T21:52:45.110Z,4.15
2023-01-12T21:55:13.740Z,4.07
2023-01-12T21:57:42.049Z,4.57
2023-01-12T22:00:10.750Z,4.20
2023-01-12T22:02:37.505Z,4.50
2023-01-12T22:05:05.509Z,3.88
2023-01-12T22:07:32.316Z,4.32
2023-01-12T22:10:19.094Z,4.45
2023-01-12T22:12:52.422Z,4.90
2023-01-12T22:15:19.313Z,5.32
2023-01-12T22:17:46.414Z,4.25
2023-01-12T22:20:14.547Z,4.30
2023-01-12T22:22:41.686Z,4.22
2023-01-12T22:25:11.569Z,3.88
2023-01-12T22:27:41.628Z,4.07
2023-01-12T22:30:12.929Z,3.47
2023-01-12T22:32:41.671Z,3.78
2023-01-12T22:35:09.758Z,4.50
2023-01-12T22:37:38.439Z,4.20
2023-01-12T22:40:08.736Z,4.05
2023-01-12T22:42:54.533Z,3.85
2023-01-12T22:45:21.403Z,3.72
2023-01-12T22:47:56.128Z,3.85
2023-01-12T22:50:24.876Z,4.55
2023-01-12T22:52:54.771Z,3.58
2023-01-12T22:55:24.351Z,3.80
2023-01-12T22:57:51.498Z,3.85
2023-01-12T23:00:20.065Z,4.22
2023-01-12T23:03:02.982Z,4.40
2023-01-12T23:05:36.368Z,3.50
2023-01-12T23:08:06.119Z,3.83
2023-01-12T23:10:33.703Z,4.22
2023-01-12T23:13:17.932Z,4.43
2023-01-12T23:15:44.686Z,3.70
2023-01-12T23:18:14.514Z,3.55
2023-01-12T23:20:42.817Z,3.60
2023-01-12T23:23:11.205Z,3.67
2023-01-12T23:25:39.525Z,4.57
2023-01-12T23:28:07.967Z,4.28
2023-01-12T23:30:34.814Z,4.30
2023-01-12T23:33:04.226Z,4.22
2023-01-12T23:35:42.926Z,3.90
2023-01-12T23:38:16.371Z,3.97
2023-01-12T23:40:43.664Z,3.38
2023-01-12T23:43:10.457Z,3.95
2023-01-12T23:45:37.387Z,4.13
2023-01-12T23:48:07.744Z,4.32
2023-01-12T23:50:34.571Z,3.92
2023-01-12T23:53:01.327Z,4.15
2023-01-12T23:55:28.566Z,3.65
2023-01-12T23:57:55.677Z,3.85
